createdAt,value
2016-08-13T00:00:33.716Z,94.12
2016-08-13T00:01:32.535Z,93.78
2016-08-13T00:02:33.396Z,94.02
2016-08-13T00:03:32.843Z,94.21
2016-08-13T00:04:33.862Z,94.21
2016-08-13T00:05:32.374Z,94.35
2016-08-13T00:06:32.457Z,94.4
2016-08-13T00:07:32.871Z,94.02
2016-08-13T00:08:32.597Z,94.89
2016-08-13T00:09:33.670Z,94.59
2016-08-13T00:10:32.704Z,94.59
2016-08-13T00:11:32.813Z,94.31
2016-08-13T00:12:32.382Z,93.73
2016-08-13T00:13:33.651Z,94.02
2016-08-13T00:14:33.004Z,93.44
2016-08-13T00:15:32.982Z,94.02
2016-08-13T00:16:32.703Z,94.79
2016-08-13T00:17:33.289Z,94.5
2016-08-13T00:18:33.128Z,93.98
2016-08-13T00:19:32.854Z,94.55
2016-08-13T00:20:32.795Z,94.64
2016-08-13T00:21:32.994Z,94.55
2016-08-13T00:22:34.046Z,94.74
2016-08-13T00:23:32.688Z,94.45
2016-08-13T00:24:33.591Z,94.55
2016-08-13T00:25:32.752Z,94.74
2016-08-13T00:26:33.036Z,94.93
2016-08-13T00:27:34.013Z,95.6
2016-08-13T00:28:33.139Z,95.22
2016-08-13T00:29:34.343Z,95.7
2016-08-13T00:30:34.116Z,94.93
2016-08-13T00:31:33.541Z,94.74
2016-08-13T00:32:33.030Z,95.31
2016-08-13T00:33:33.162Z,95.51
2016-08-13T00:34:32.999Z,95.31
2016-08-13T00:35:33.093Z,94.74
2016-08-13T00:36:33.103Z,95.41
2016-08-13T00:37:33.117Z,95.41
2016-08-13T00:38:33.650Z,95.6
2016-08-13T00:39:33.117Z,95.51
2016-08-13T00:40:33.075Z,95.31
2016-08-13T00:41:33.102Z,95.22
2016-08-13T00:42:34.497Z,95.7
2016-08-13T00:43:33.753Z,94.45
2016-08-13T00:44:34.784Z,94.59
2016-08-13T00:45:34.342Z,94.59
2016-08-13T00:46:33.497Z,94.4
2016-08-13T00:47:34.294Z,94.89
2016-08-13T00:48:33.355Z,94.5
2016-08-13T00:49:33.235Z,94.89
2016-08-13T00:50:33.960Z,94.64
2016-08-13T00:51:34.384Z,94.17
2016-08-13T00:52:33.887Z,94.26
2016-08-13T00:53:34.074Z,94.64
2016-08-13T00:54:34.207Z,95.31
2016-08-13T00:55:33.814Z,95.41
2016-08-13T00:56:34.323Z,95.31
2016-08-13T00:57:34.247Z,95.22
2016-08-13T00:58:33.724Z,95.31
2016-08-13T00:59:33.858Z,95.12
2016-08-13T01:00:34.701Z,95.6
2016-08-13T01:01:34.970Z,94.93
2016-08-13T01:02:33.858Z,95.12
2016-08-13T01:03:34.236Z,95.31
2016-08-13T01:04:34.068Z,95.41
2016-08-13T01:05:34.221Z,95.51
2016-08-13T01:06:34.212Z,95.41
2016-08-13T01:07:35.305Z,94.55
2016-08-13T01:08:33.883Z,94.55
2016-08-13T01:09:34.914Z,94.17
2016-08-13T01:10:34.339Z,94.64
2016-08-13T01:11:34.855Z,94.55
2016-08-13T01:12:34.352Z,94.64
2016-08-13T01:13:34.711Z,94.31
2016-08-13T01:14:34.793Z,94.6
2016-08-13T01:15:34.034Z,93.93
2016-08-13T01:16:35.082Z,95.65
2016-08-13T01:17:34.589Z,96.03
2016-08-13T01:18:34.407Z,96.22
2016-08-13T01:19:34.454Z,95.46
2016-08-13T01:20:34.424Z,95.75
2016-08-13T01:21:34.420Z,95.17
2016-08-13T01:22:35.070Z,95.36
2016-08-13T01:23:34.657Z,95.07
2016-08-13T01:24:34.618Z,94.4
2016-08-13T01:25:34.523Z,94.21
2016-08-13T01:26:34.525Z,93.74
2016-08-13T01:27:34.412Z,94.69
2016-08-13T01:28:34.965Z,94.21
2016-08-13T01:29:35.699Z,94.31
2016-08-13T01:30:35.566Z,94.6
2016-08-13T01:31:34.590Z,95.17
2016-08-13T01:32:34.885Z,94.89
2016-08-13T01:33:34.572Z,95.46
2016-08-13T01:34:36.327Z,95.17
2016-08-13T01:35:35.197Z,95.75
2016-08-13T01:36:35.616Z,95.27
2016-08-13T01:37:34.973Z,94.69
2016-08-13T01:38:34.915Z,93.93
2016-08-13T01:39:35.727Z,94.69
2016-08-13T01:40:35.287Z,95.27
2016-08-13T01:41:35.513Z,95.07
2016-08-13T01:42:35.426Z,95.07
2016-08-13T01:43:35.775Z,95.31
2016-08-13T01:44:34.895Z,95.27
2016-08-13T01:45:35.214Z,95.61
2016-08-13T01:46:35.651Z,95.22
2016-08-13T01:47:35.824Z,96.37
2016-08-13T01:48:35.378Z,95.65
2016-08-13T01:49:34.696Z,94.6
2016-08-13T01:50:35.142Z,94.79
2016-08-13T01:51:35.280Z,94.84
2016-08-13T01:52:35.320Z,94.74
2016-08-13T01:53:35.097Z,95.12
2016-08-13T01:54:35.317Z,95.22
2016-08-13T01:55:34.981Z,95.31
2016-08-13T01:56:35.268Z,95.41
2016-08-13T01:57:35.235Z,95.61
2016-08-13T01:58:36.506Z,94.45
2016-08-13T01:59:35.302Z,94.55
2016-08-13T02:00:35.207Z,94.55
2016-08-13T02:01:35.074Z,94.31
2016-08-13T02:02:36.316Z,94.4
2016-08-13T02:03:35.570Z,95.36
2016-08-13T02:04:35.660Z,95.12
2016-08-13T02:05:36.054Z,95.41
2016-08-13T02:06:36.185Z,96.56
2016-08-13T02:07:35.273Z,95.41
2016-08-13T02:08:36.476Z,95.61
2016-08-13T02:09:36.107Z,94.31
2016-08-13T02:10:35.608Z,94.02
2016-08-13T02:11:35.367Z,94.21
2016-08-13T02:12:36.219Z,94.69
2016-08-13T02:13:37.037Z,95.22
2016-08-13T02:14:35.539Z,95.51
2016-08-13T02:15:35.332Z,95.61
2016-08-13T02:16:36.307Z,95.51
2016-08-13T02:17:37.084Z,94.36
2016-08-13T02:18:35.830Z,94.74
2016-08-13T02:19:35.501Z,95.61
2016-08-13T02:20:36.460Z,94.36
2016-08-13T02:21:36.018Z,94.55
2016-08-13T02:22:37.019Z,95.31
2016-08-13T02:23:36.219Z,95.31
2016-08-13T02:24:36.570Z,94.36
2016-08-13T02:25:36.126Z,95.41
2016-08-13T02:26:35.668Z,96.13
2016-08-13T02:27:36.287Z,94.84
2016-08-13T02:28:36.964Z,95.03
2016-08-13T02:29:35.952Z,95.41
2016-08-13T02:30:36.819Z,95.03
2016-08-13T02:31:35.834Z,95.7
2016-08-13T02:32:37.529Z,94.21
2016-08-13T02:33:36.462Z,95.65
2016-08-13T02:34:36.310Z,95.41
2016-08-13T02:35:36.334Z,95.07
2016-08-13T02:36:36.613Z,96.32
2016-08-13T02:37:37.015Z,95.56
2016-08-13T02:38:36.291Z,95.65
2016-08-13T02:39:37.434Z,94.98
2016-08-13T02:40:36.782Z,94.7
2016-08-13T02:41:36.907Z,94.5
2016-08-13T02:42:36.518Z,95.12
2016-08-13T02:43:36.487Z,95.03
2016-08-13T02:44:37.650Z,95.61
2016-08-13T02:45:36.438Z,96.75
2016-08-13T02:46:36.720Z,96.13
2016-08-13T02:47:37.412Z,96.13
2016-08-13T02:48:36.557Z,96.13
2016-08-13T02:49:36.547Z,97.42
2016-08-13T02:50:36.390Z,95.98
2016-08-13T02:51:37.387Z,96.27
2016-08-13T02:52:37.117Z,96.47
2016-08-13T02:53:36.808Z,95.31
2016-08-13T02:54:36.716Z,96.37
2016-08-13T02:55:36.525Z,96.51
2016-08-13T02:56:36.952Z,96.13
2016-08-13T02:57:36.884Z,94.79
2016-08-13T02:58:36.691Z,96.61
2016-08-13T02:59:37.475Z,96.13
2016-08-13T03:00:37.751Z,96.32
2016-08-13T03:01:36.797Z,96.42
2016-08-13T03:02:38.223Z,96.8
2016-08-13T03:03:37.922Z,95.7
2016-08-13T03:04:36.834Z,95.98
2016-08-13T03:05:37.254Z,96.03
2016-08-13T03:06:36.653Z,96.47
2016-08-13T03:07:36.882Z,96.32
2016-08-13T03:08:36.975Z,96.42
2016-08-13T03:09:37.647Z,96.42
2016-08-13T03:10:37.470Z,96.42
2016-08-13T03:11:36.724Z,96.32
2016-08-13T03:12:39.162Z,96.13
2016-08-13T03:13:38.111Z,96.61
2016-08-13T03:14:37.880Z,97.08
2016-08-13T03:15:36.946Z,96.56
2016-08-13T03:16:37.122Z,96.32
2016-08-13T03:17:37.040Z,95.94
2016-08-13T03:18:37.326Z,96.8
2016-08-13T03:19:37.099Z,96.51
2016-08-13T03:20:36.921Z,95.36
2016-08-13T03:21:38.889Z,96.13
2016-08-13T03:22:37.269Z,96.42
2016-08-13T03:23:37.307Z,96.99
2016-08-13T03:24:37.013Z,96.7
2016-08-13T03:25:37.362Z,96.32
2016-08-13T03:26:38.248Z,96.89
2016-08-13T03:27:38.465Z,97.75
2016-08-13T03:28:38.773Z,97.52
2016-08-13T03:29:37.381Z,96.75
2016-08-13T03:30:38.337Z,96.89
2016-08-13T03:31:37.403Z,96.32
2016-08-13T03:32:38.089Z,96.22
2016-08-13T03:33:37.326Z,96.13
2016-08-13T03:34:37.483Z,96.08
2016-08-13T03:35:38.606Z,97.04
2016-08-13T03:36:37.655Z,97.13
2016-08-13T03:37:39.456Z,96.27
2016-08-13T03:38:37.904Z,97.13
2016-08-13T03:39:39.015Z,96.47
2016-08-13T03:40:38.310Z,97.04
2016-08-13T03:41:38.324Z,96.61
2016-08-13T03:42:37.625Z,96.56
2016-08-13T03:43:37.463Z,96.8
2016-08-13T03:44:37.480Z,96.99
2016-08-13T03:45:37.619Z,97.8
2016-08-13T03:46:37.799Z,97.85
2016-08-13T03:47:37.837Z,96.89
2016-08-13T03:48:37.877Z,96.61
2016-08-13T03:49:38.210Z,96.89
2016-08-13T03:50:38.302Z,96.99
2016-08-13T03:51:38.252Z,95.94
2016-08-13T03:52:37.720Z,96.89
2016-08-13T03:53:37.483Z,96.7
2016-08-13T03:54:37.989Z,97.66
2016-08-13T03:55:38.974Z,97.71
2016-08-13T03:56:38.063Z,97.8
2016-08-13T03:57:38.113Z,97.52
2016-08-13T03:58:38.140Z,96.51
2016-08-13T03:59:38.306Z,97.08
2016-08-13T04:00:38.760Z,96.8
2016-08-13T04:01:39.020Z,97.8
2016-08-13T04:02:38.946Z,96.47
2016-08-13T04:03:38.133Z,97.08
2016-08-13T04:04:38.968Z,97.66
2016-08-13T04:05:39.097Z,97.42
2016-08-13T04:06:38.975Z,97.56
2016-08-13T04:07:39.183Z,98.43
2016-08-13T04:08:39.163Z,98.18
2016-08-13T04:09:37.908Z,98.52
2016-08-13T04:10:39.068Z,98.52
2016-08-13T04:11:38.520Z,97.66
2016-08-13T04:12:38.896Z,97.85
2016-08-13T04:13:38.976Z,97.75
2016-08-13T04:14:38.550Z,97.95
2016-08-13T04:15:38.673Z,98.04
2016-08-13T04:16:38.700Z,98.14
2016-08-13T04:17:38.778Z,98.52
2016-08-13T04:18:38.436Z,97.95
2016-08-13T04:19:38.424Z,97.85
2016-08-13T04:20:39.429Z,98.14
2016-08-13T04:21:38.533Z,97.85
2016-08-13T04:22:38.883Z,97.47
2016-08-13T04:23:39.292Z,96.94
2016-08-13T04:24:38.725Z,97.95
2016-08-13T04:25:39.484Z,97.75
2016-08-13T04:26:39.458Z,98.18
2016-08-13T04:27:39.029Z,98.61
2016-08-13T04:28:39.651Z,98.28
2016-08-13T04:29:39.158Z,97.95
2016-08-13T04:30:38.990Z,97.95
2016-08-13T04:31:38.974Z,97.56
2016-08-13T04:32:38.977Z,97.85
2016-08-13T04:33:39.620Z,97.04
2016-08-13T04:34:39.065Z,97.56
2016-08-13T04:35:38.905Z,98.09
2016-08-13T04:36:40.126Z,97.95
2016-08-13T04:37:39.069Z,98.14
2016-08-13T04:38:39.300Z,98.04
2016-08-13T04:39:39.772Z,98.24
2016-08-13T04:40:39.932Z,96.8
2016-08-13T04:41:38.938Z,97.18
2016-08-13T04:42:39.828Z,97.66
2016-08-13T04:43:39.620Z,96.42
2016-08-13T04:44:39.895Z,96.32
2016-08-13T04:45:39.146Z,96.22
2016-08-13T04:46:39.299Z,96.8
2016-08-13T04:47:39.379Z,96.89
2016-08-13T04:48:39.035Z,96.51
2016-08-13T04:49:39.117Z,96.7
2016-08-13T04:50:40.216Z,96.7
2016-08-13T04:51:39.455Z,96.89
2016-08-13T04:52:39.203Z,97.66
2016-08-13T04:53:39.986Z,96.37
2016-08-13T04:54:40.525Z,97.66
2016-08-13T04:55:39.573Z,97.66
2016-08-13T04:56:39.594Z,97.75
2016-08-13T04:57:40.213Z,98
2016-08-13T04:58:39.334Z,97.71
2016-08-13T04:59:39.278Z,96.84
2016-08-13T05:00:39.708Z,96.66
2016-08-13T05:01:39.634Z,96.94
2016-08-13T05:02:40.061Z,96.75
2016-08-13T05:03:40.904Z,96.75
2016-08-13T05:04:40.122Z,96.94
2016-08-13T05:05:39.696Z,96.66
2016-08-13T05:06:39.216Z,96.84
2016-08-13T05:07:39.406Z,97.04
2016-08-13T05:08:40.133Z,97.04
2016-08-13T05:09:40.046Z,97.71
2016-08-13T05:10:40.102Z,97.8
2016-08-13T05:11:39.910Z,97.61
2016-08-13T05:12:39.758Z,97.61
2016-08-13T05:13:39.603Z,97.9
2016-08-13T05:14:39.625Z,97.04
2016-08-13T05:15:40.978Z,96.94
2016-08-13T05:16:40.294Z,97.61
2016-08-13T05:17:39.971Z,97.8
2016-08-13T05:18:40.285Z,98.47
2016-08-13T05:19:40.335Z,97.9
2016-08-13T05:20:39.682Z,97.61
2016-08-13T05:21:40.112Z,98
2016-08-13T05:22:39.847Z,97.8
2016-08-13T05:23:40.113Z,97.9
2016-08-13T05:24:40.227Z,98
2016-08-13T05:25:40.784Z,98
2016-08-13T05:26:40.219Z,97.9
2016-08-13T05:27:42.427Z,97.9
2016-08-13T05:28:40.277Z,97.9
2016-08-13T05:29:40.221Z,97.8
2016-08-13T05:30:40.616Z,98
2016-08-13T05:31:40.226Z,98
2016-08-13T05:32:40.131Z,97.42
2016-08-13T05:33:39.908Z,97.71
2016-08-13T05:34:41.185Z,97.71
2016-08-13T05:35:40.315Z,97.8
2016-08-13T05:36:40.279Z,96.94
2016-08-13T05:37:41.085Z,96.94
2016-08-13T05:38:40.698Z,97.9
2016-08-13T05:39:40.568Z,97.71
2016-08-13T05:40:41.499Z,97.71
2016-08-13T05:41:41.480Z,97.8
2016-08-13T05:42:41.810Z,96.84
2016-08-13T05:43:41.512Z,96.66
2016-08-13T05:44:41.263Z,96.94
2016-08-13T05:45:41.354Z,97.04
2016-08-13T05:46:40.654Z,97.61
2016-08-13T05:47:40.289Z,97.8
2016-08-13T05:48:40.648Z,97.38
2016-08-13T05:49:41.266Z,96.99
2016-08-13T05:50:40.456Z,97.18
2016-08-13T05:51:40.554Z,96.51
2016-08-13T05:52:40.646Z,96.99
2016-08-13T05:53:41.551Z,97.18
2016-08-13T05:54:40.777Z,96.22
2016-08-13T05:55:41.311Z,96.22
2016-08-13T05:56:41.123Z,96.42
2016-08-13T05:57:40.585Z,96.99
2016-08-13T05:58:40.610Z,96.89
2016-08-13T05:59:40.749Z,96.8
2016-08-13T06:00:42.261Z,96.99
2016-08-13T06:01:40.741Z,96.99
2016-08-13T06:02:40.735Z,96.42
2016-08-13T06:03:41.703Z,97.18
2016-08-13T06:04:40.647Z,96.51
2016-08-13T06:05:41.067Z,96.18
2016-08-13T06:06:41.293Z,96.56
2016-08-13T06:07:41.277Z,96.75
2016-08-13T06:08:41.339Z,97.23
2016-08-13T06:09:41.127Z,96.66
2016-08-13T06:10:41.323Z,97.04
2016-08-13T06:11:41.297Z,96.37
2016-08-13T06:12:41.572Z,96.66
2016-08-13T06:13:41.398Z,96.84
2016-08-13T06:14:42.378Z,96.08
2016-08-13T06:15:42.018Z,96.32
2016-08-13T06:16:40.946Z,97.09
2016-08-13T06:17:41.696Z,96.42
2016-08-13T06:18:41.440Z,95.75
2016-08-13T06:19:42.275Z,96.03
2016-08-13T06:20:41.302Z,94.54
2016-08-13T06:21:42.582Z,95.31
2016-08-13T06:22:42.017Z,96.37
2016-08-13T06:23:42.874Z,94.74
2016-08-13T06:24:42.485Z,94.54
2016-08-13T06:25:42.292Z,93.97
2016-08-13T06:26:42.268Z,94.93
2016-08-13T06:27:41.605Z,94.93
2016-08-13T06:28:41.517Z,94.69
2016-08-13T06:29:42.194Z,93.82
2016-08-13T06:30:42.510Z,93.92
2016-08-13T06:31:42.606Z,94.12
2016-08-13T06:32:42.295Z,93.54
2016-08-13T06:33:42.006Z,93.73
2016-08-13T06:34:41.613Z,93.35
2016-08-13T06:35:42.290Z,93.25
2016-08-13T06:36:41.483Z,93.35
2016-08-13T06:37:42.948Z,92.68
2016-08-13T06:38:41.941Z,93.54
2016-08-13T06:39:41.978Z,93.39
2016-08-13T06:40:42.023Z,92.53
2016-08-13T06:41:41.556Z,92.24
2016-08-13T06:42:42.190Z,92.33
2016-08-13T06:43:42.685Z,91.86
2016-08-13T06:44:42.084Z,92.24
2016-08-13T06:45:43.024Z,91.66
2016-08-13T06:46:42.065Z,91.96
2016-08-13T06:47:42.264Z,91.96
2016-08-13T06:48:42.050Z,91.09
2016-08-13T06:49:42.981Z,91.28
2016-08-13T06:50:42.205Z,90.56
2016-08-13T06:51:43.351Z,90.17
2016-08-13T06:52:41.977Z,90.46
2016-08-13T06:53:41.889Z,90.37
2016-08-13T06:54:42.005Z,90.56
2016-08-13T06:55:42.206Z,90.46
2016-08-13T06:56:43.327Z,89.89
2016-08-13T06:57:42.548Z,90.27
2016-08-13T06:58:43.425Z,87.82
2016-08-13T06:59:42.166Z,88.01
2016-08-13T07:00:42.486Z,86.71
2016-08-13T07:01:43.952Z,87.43
2016-08-13T07:02:43.234Z,86.8
2016-08-13T07:03:43.016Z,86.52
2016-08-13T07:04:43.452Z,85.65
2016-08-13T07:05:43.478Z,87.09
2016-08-13T07:06:42.920Z,85.5
2016-08-13T07:07:43.207Z,84.88
2016-08-13T07:08:43.008Z,85.6
2016-08-13T07:09:42.445Z,85.07
2016-08-13T07:10:44.443Z,85.5
2016-08-13T07:11:42.851Z,85.21
2016-08-13T07:12:43.030Z,84.69
2016-08-13T07:13:42.588Z,84.44
2016-08-13T07:14:43.069Z,84.48
2016-08-13T07:15:42.458Z,83.91
2016-08-13T07:16:42.852Z,84
2016-08-13T07:17:43.528Z,82.75
2016-08-13T07:18:42.768Z,80.96
2016-08-13T07:19:44.201Z,82.41
2016-08-13T07:20:42.712Z,81.73
2016-08-13T07:21:42.728Z,81.5
2016-08-13T07:22:43.782Z,80.96
2016-08-13T07:23:42.892Z,81.54
2016-08-13T07:24:42.910Z,82.79
2016-08-13T07:25:43.544Z,82.41
2016-08-13T07:26:44.483Z,81.73
2016-08-13T07:27:43.831Z,81.06
2016-08-13T07:28:43.551Z,79.02
2016-08-13T07:29:42.878Z,78.88
2016-08-13T07:30:44.205Z,80.43
2016-08-13T07:31:43.832Z,78.59
2016-08-13T07:32:44.389Z,78.21
2016-08-13T07:33:43.288Z,77.44
2016-08-13T07:34:44.058Z,78.02
2016-08-13T07:35:43.274Z,76.9
2016-08-13T07:36:43.612Z,76.03
2016-08-13T07:37:44.311Z,76.23
2016-08-13T07:38:42.955Z,75.26
2016-08-13T07:39:43.392Z,74.14
2016-08-13T07:40:43.594Z,74.27
2016-08-13T07:41:43.910Z,72.83
2016-08-13T07:42:43.511Z,75.01
2016-08-13T07:43:43.436Z,74.72
2016-08-13T07:44:43.664Z,75.65
2016-08-13T07:45:44.501Z,73.02
2016-08-13T07:46:44.377Z,73.02
2016-08-13T07:47:44.820Z,72.19
2016-08-13T07:48:44.044Z,72.19
2016-08-13T07:49:43.960Z,72.15
2016-08-13T07:50:44.391Z,71.12
2016-08-13T07:51:44.103Z,71.7
2016-08-13T07:52:43.828Z,72.06
2016-08-13T07:53:44.301Z,72.21
2016-08-13T07:54:43.930Z,71.77
2016-08-13T07:55:44.253Z,70.45
2016-08-13T07:56:43.547Z,69.49
2016-08-13T07:57:44.436Z,68.59
2016-08-13T07:58:44.818Z,67.88
2016-08-13T07:59:44.171Z,68.55
2016-08-13T08:00:44.073Z,69.68
2016-08-13T08:01:43.819Z,70.16
2016-08-13T08:02:44.700Z,69.49
2016-08-13T08:03:44.971Z,69.84
2016-08-13T08:04:45.480Z,67.46
2016-08-13T08:05:43.855Z,66.94
2016-08-13T08:06:44.292Z,66.97
2016-08-13T08:07:45.026Z,65.95
2016-08-13T08:08:43.842Z,67.17
2016-08-13T08:09:44.166Z,67.3
2016-08-13T08:10:44.180Z,67.07
2016-08-13T08:11:44.759Z,67.58
2016-08-13T08:12:44.260Z,69.42
2016-08-13T08:13:44.662Z,66.94
2016-08-13T08:14:44.081Z,64.34
2016-08-13T08:15:45.665Z,64.14
2016-08-13T08:16:45.386Z,64.34
2016-08-13T08:17:45.289Z,63.5
2016-08-13T08:18:44.993Z,61.02
2016-08-13T08:19:45.211Z,63.31
2016-08-13T08:20:45.791Z,62.82
2016-08-13T08:21:44.876Z,63.21
2016-08-13T08:22:44.856Z,62.34
2016-08-13T08:23:45.140Z,61.92
2016-08-13T08:24:45.672Z,61.24
2016-08-13T08:25:45.033Z,60.34
2016-08-13T08:26:44.838Z,59.98
2016-08-13T08:27:45.074Z,60.5
2016-08-13T08:28:45.771Z,61.08
2016-08-13T08:29:44.623Z,61.76
2016-08-13T08:30:46.501Z,61.27
2016-08-13T08:31:45.160Z,61.6
2016-08-13T08:32:46.013Z,62.18
2016-08-13T08:33:45.720Z,62.05
2016-08-13T08:34:45.215Z,62.08
2016-08-13T08:35:46.124Z,60.34
2016-08-13T08:36:44.888Z,59.5
2016-08-13T08:37:45.189Z,59.53
2016-08-13T08:38:45.388Z,59.86
2016-08-13T08:39:45.273Z,59.01
2016-08-13T08:40:45.498Z,58.45
2016-08-13T08:41:46.036Z,59.83
2016-08-13T08:42:45.949Z,59.66
2016-08-13T08:43:45.249Z,58.6
2016-08-13T08:44:46.318Z,54.73
2016-08-13T08:45:45.074Z,55.89
2016-08-13T08:46:45.601Z,53.06
2016-08-13T08:47:45.079Z,53.55
2016-08-13T08:48:45.668Z,55.09
2016-08-13T08:49:45.784Z,51.06
2016-08-13T08:50:45.486Z,51.37
2016-08-13T08:51:46.043Z,53.5
2016-08-13T08:52:46.171Z,50.18
2016-08-13T08:53:46.104Z,50.79
2016-08-13T08:54:47.071Z,51.9
2016-08-13T08:55:46.007Z,51.97
2016-08-13T08:56:46.072Z,52.48
2016-08-13T08:57:46.713Z,50.02
2016-08-13T08:58:45.858Z,51.37
2016-08-13T08:59:45.692Z,51.08
2016-08-13T09:00:46.867Z,49.24
2016-08-13T09:01:46.760Z,50.7
2016-08-13T09:02:46.429Z,52.41
2016-08-13T09:03:45.731Z,49.9
2016-08-13T09:04:46.101Z,51.03
2016-08-13T09:05:45.965Z,49.9
2016-08-13T09:06:46.496Z,50.57
2016-08-13T09:07:45.825Z,50.84
2016-08-13T09:08:46.716Z,50.74
2016-08-13T09:09:46.411Z,49.99
2016-08-13T09:10:48.098Z,50.31
2016-08-13T09:11:46.546Z,47.99
2016-08-13T09:12:45.984Z,49.63
2016-08-13T09:13:46.777Z,50.09
2016-08-13T09:14:46.140Z,49.87
2016-08-13T09:15:46.288Z,49.63
2016-08-13T09:16:46.862Z,50.28
2016-08-13T09:17:47.241Z,50.12
2016-08-13T09:18:47.384Z,49.82
2016-08-13T09:19:46.385Z,49.32
2016-08-13T09:20:47.672Z,49.05
2016-08-13T09:21:46.729Z,48.3
2016-08-13T09:22:47.648Z,48.32
2016-08-13T09:23:46.686Z,47.86
2016-08-13T09:24:46.704Z,47.72
2016-08-13T09:25:46.705Z,47.52
2016-08-13T09:26:47.206Z,47.36
2016-08-13T09:27:46.661Z,48.27
2016-08-13T09:28:47.442Z,49.37
2016-08-13T09:29:47.505Z,48.83
2016-08-13T09:30:47.713Z,49.12
2016-08-13T09:31:48.122Z,49.19
2016-08-13T09:32:47.190Z,48.59
2016-08-13T09:33:47.069Z,47.89
2016-08-13T09:34:47.378Z,44.78
2016-08-13T09:35:47.598Z,43.27
2016-08-13T09:36:47.920Z,46.69
2016-08-13T09:37:47.521Z,47.64
2016-08-13T09:38:46.867Z,49.44
2016-08-13T09:39:48.374Z,48.39
2016-08-13T09:40:47.709Z,46.8
2016-08-13T09:41:47.207Z,47.16
2016-08-13T09:42:48.597Z,46.07
2016-08-13T09:43:47.940Z,47.06
2016-08-13T09:44:48.134Z,45.1
2016-08-13T09:45:47.942Z,45.53
2016-08-13T09:46:48.229Z,44.42
2016-08-13T09:47:47.498Z,44.75
2016-08-13T09:48:48.596Z,47.5
2016-08-13T09:49:47.406Z,48.39
2016-08-13T09:50:47.302Z,48.42
2016-08-13T09:51:47.505Z,44.49
2016-08-13T09:52:48.283Z,45.55
2016-08-13T09:53:48.876Z,42.71
2016-08-13T09:54:48.586Z,41.83
2016-08-13T09:55:47.970Z,43.41
2016-08-13T09:56:48.650Z,46.16
2016-08-13T09:57:48.061Z,46.72
2016-08-13T09:58:49.301Z,46.33
2016-08-13T09:59:48.336Z,44.81
2016-08-13T10:00:48.411Z,43.2
2016-08-13T10:01:47.519Z,43.54
2016-08-13T10:02:48.005Z,44.68
2016-08-13T10:03:49.302Z,43.51
2016-08-13T10:04:49.214Z,44.9
2016-08-13T10:05:49.137Z,44.3
2016-08-13T10:06:48.373Z,44.32
2016-08-13T10:07:48.209Z,43.76
2016-08-13T10:08:49.073Z,43.36
2016-08-13T10:09:48.130Z,41.3
2016-08-13T10:10:48.729Z,41.64
2016-08-13T10:11:49.499Z,42.46
2016-08-13T10:12:48.336Z,43.27
2016-08-13T10:13:49.127Z,44.4
2016-08-13T10:14:49.327Z,42.3
2016-08-13T10:15:48.192Z,40.92
2016-08-13T10:16:49.005Z,42.21
2016-08-13T10:17:48.209Z,42.09
2016-08-13T10:18:48.327Z,42.05
2016-08-13T10:19:49.544Z,40.41
2016-08-13T10:20:49.915Z,40.42
2016-08-13T10:21:48.599Z,39.76
2016-08-13T10:22:50.024Z,38.89
2016-08-13T10:23:49.150Z,37.68
2016-08-13T10:24:48.801Z,39.8
2016-08-13T10:25:49.302Z,41.03
2016-08-13T10:26:49.106Z,43.3
2016-08-13T10:27:48.884Z,44.09
2016-08-13T10:28:49.078Z,43.27
2016-08-13T10:29:48.757Z,42.38
2016-08-13T10:30:49.461Z,41.26
2016-08-13T10:31:49.122Z,41.64
2016-08-13T10:32:49.258Z,41.55
2016-08-13T10:33:49.634Z,42.3
2016-08-13T10:34:50.114Z,44.1
2016-08-13T10:35:49.103Z,41.72
2016-08-13T10:36:50.255Z,43.16
2016-08-13T10:37:49.102Z,44.76
2016-08-13T10:38:50.116Z,42.57
2016-08-13T10:39:50.875Z,40.69
2016-08-13T10:40:50.068Z,42.36
2016-08-13T10:41:50.666Z,43.16
2016-08-13T10:42:50.347Z,43.18
2016-08-13T10:43:49.724Z,44.2
2016-08-13T10:44:50.513Z,44.23
2016-08-13T10:45:50.089Z,44.59
2016-08-13T10:46:50.227Z,43.79
2016-08-13T10:47:50.800Z,44.59
2016-08-13T10:48:50.006Z,44.57
2016-08-13T10:49:49.697Z,43.99
2016-08-13T10:50:50.669Z,44.67
2016-08-13T10:51:50.990Z,44.06
2016-08-13T10:52:50.675Z,43.79
2016-08-13T10:53:50.731Z,44.01
2016-08-13T10:54:50.803Z,44.67
2016-08-13T10:55:49.964Z,43.95
2016-08-13T10:56:50.057Z,44.06
2016-08-13T10:57:50.862Z,43.91
2016-08-13T10:58:49.978Z,44.27
2016-08-13T10:59:51.229Z,43.43
2016-08-13T11:00:50.170Z,42.77
2016-08-13T11:01:49.976Z,41.92
2016-08-13T11:02:50.158Z,43.41
2016-08-13T11:03:50.819Z,43.62
2016-08-13T11:04:50.208Z,44.09
2016-08-13T11:05:50.240Z,43.21
2016-08-13T11:06:51.273Z,43.23
2016-08-13T11:07:50.576Z,43.52
2016-08-13T11:08:50.588Z,42.38
2016-08-13T11:09:50.768Z,42.11
2016-08-13T11:10:50.632Z,41.7
2016-08-13T11:11:50.247Z,41.63
2016-08-13T11:12:50.694Z,40.03
2016-08-13T11:13:50.718Z,40.29
2016-08-13T11:14:50.540Z,40.19
2016-08-13T11:15:51.279Z,39.24
2016-08-13T11:16:51.143Z,40.39
2016-08-13T11:17:50.851Z,39.59
2016-08-13T11:18:51.156Z,38.77
2016-08-13T11:19:51.658Z,37.92
2016-08-13T11:20:51.513Z,38.37
2016-08-13T11:21:51.026Z,39.98
2016-08-13T11:22:51.058Z,39.45
2016-08-13T11:23:51.332Z,41.72
2016-08-13T11:24:51.198Z,43.4
2016-08-13T11:25:52.506Z,39.04
2016-08-13T11:26:51.226Z,37.14
2016-08-13T11:27:52.100Z,40.48
2016-08-13T11:28:51.417Z,41.26
2016-08-13T11:29:51.201Z,41.58
2016-08-13T11:30:51.624Z,41.69
2016-08-13T11:31:51.077Z,42.79
2016-08-13T11:32:50.912Z,43.26
2016-08-13T11:33:52.181Z,41.2
2016-08-13T11:34:51.171Z,42.5
2016-08-13T11:35:52.110Z,41.01
2016-08-13T11:36:51.927Z,41.06
2016-08-13T11:37:51.505Z,38.7
2016-08-13T11:38:51.342Z,39.69
2016-08-13T11:39:51.932Z,39.57
2016-08-13T11:40:51.982Z,38.98
2016-08-13T11:41:51.900Z,40.42
2016-08-13T11:42:51.273Z,41.28
2016-08-13T11:43:52.419Z,39.92
2016-08-13T11:44:52.096Z,38.34
2016-08-13T11:45:51.979Z,36.79
2016-08-13T11:46:52.530Z,39.61
2016-08-13T11:47:52.078Z,37.76
2016-08-13T11:48:53.167Z,39.75
2016-08-13T11:49:53.036Z,41.63
2016-08-13T11:50:52.386Z,39.39
2016-08-13T11:51:52.218Z,39.76
2016-08-13T11:52:51.996Z,39.67
2016-08-13T11:53:52.195Z,38.39
2016-08-13T11:54:52.028Z,38.77
2016-08-13T11:55:53.110Z,38.73
2016-08-13T11:56:52.804Z,39.72
2016-08-13T11:57:52.309Z,38.54
2016-08-13T11:58:52.276Z,39.62
2016-08-13T11:59:52.463Z,38.54
2016-08-13T12:00:52.777Z,37.7
2016-08-13T12:01:52.343Z,38.91
2016-08-13T12:02:53.394Z,37.07
2016-08-13T12:03:52.610Z,38.95
2016-08-13T12:04:53.075Z,39.39
2016-08-13T12:05:52.686Z,39.2
2016-08-13T12:07:54.175Z,38.95
2016-08-13T12:08:53.368Z,39.39
2016-08-13T12:09:52.803Z,38.4
2016-08-13T12:10:54.060Z,36.08
2016-08-13T12:11:52.615Z,38.32
2016-08-13T12:12:52.864Z,37.04
2016-08-13T12:13:53.765Z,38.46
2016-08-13T12:14:52.999Z,38.37
2016-08-13T12:15:53.160Z,39.22
2016-08-13T12:16:53.018Z,38.56
2016-08-13T12:17:53.891Z,38.11
2016-08-13T12:18:54.059Z,38.24
2016-08-13T12:19:54.157Z,39.55
2016-08-13T12:20:54.545Z,39.72
2016-08-13T12:21:53.450Z,40.11
2016-08-13T12:22:53.975Z,38.48
2016-08-13T12:23:53.394Z,38.24
2016-08-13T12:24:53.052Z,40.72
2016-08-13T12:25:54.259Z,37.6
2016-08-13T12:27:53.029Z,38.31
2016-08-13T12:28:54.434Z,39.75
2016-08-13T12:29:54.341Z,38.57
2016-08-13T12:30:53.451Z,38.54
2016-08-13T12:31:53.991Z,35.1
2016-08-13T12:32:54.268Z,34.34
2016-08-13T12:33:54.632Z,33.07
2016-08-13T12:34:54.307Z,34.75
2016-08-13T12:35:53.543Z,33.53
2016-08-13T12:36:54.540Z,32.97
2016-08-13T12:37:53.959Z,36.41
2016-08-13T12:38:55.246Z,36.08
2016-08-13T12:39:53.546Z,35.75
2016-08-13T12:40:54.598Z,35.89
2016-08-13T12:41:54.600Z,32.86
2016-08-13T12:42:54.426Z,32.76
2016-08-13T12:43:54.173Z,36.8
2016-08-13T12:44:54.534Z,35.58
2016-08-13T12:45:54.043Z,36.32
2016-08-13T12:46:54.335Z,37.46
2016-08-13T12:47:53.985Z,37.32
2016-08-13T12:48:54.061Z,39.39
2016-08-13T12:49:54.229Z,39.8
2016-08-13T12:50:55.540Z,39.36
2016-08-13T12:51:55.044Z,38.67
2016-08-13T12:52:54.279Z,36.94
2016-08-13T12:53:54.574Z,33.98
2016-08-13T12:54:55.110Z,35.73
2016-08-13T12:55:54.110Z,36.3
2016-08-13T12:56:54.193Z,35.88
2016-08-13T12:57:55.394Z,33.88
2016-08-13T12:58:54.283Z,35.33